Edna Bay, Alaska
Current Conditions -  °F | °C
As of 8:53 AM on Thursday 30 Oct 2014 (Local Time) from PAKW Reporting Station
Moderate Rain Moderate Rain  
Wind Chill: 40°   Ceiling: 3600
Heat Index: 40°   Visibility: 4mi
Dew Point: 40°   Wind: 0mph
Humidity: 100%   Direction: NA
Pressure: 29.46"   Gusts: NA
Location:  55.8158°N, 132.958°W
Report Text: PAKW 301653Z AUTO 00000KT 4SM RA BR FEW005 OVC036 04/04 A2946 RMK AO2 SLP978 P0011 T00440044 TSNO
Loading
Personal Weather Stations






























Interactive Weather Map
Tropical Storm Tracking
New forecast layout! Learn more

10-Day Weather Forecast

Advertisements
Track Severe Weather on mobile